sensor_id;sensor_type;location;lat;lon;timestamp;P1;durP1;ratioP1;P2;durP2;ratioP2
59790;SDS011;47431;51.640;5.554;2023-10-09T00:01:39;51.13;;;34.58;;
59790;SDS011;47431;51.640;5.554;2023-10-09T00:04:09;51.92;;;34.35;;
59790;SDS011;47431;51.640;5.554;2023-10-09T00:06:39;61.88;;;37.88;;
59790;SDS011;47431;51.640;5.554;2023-10-09T00:09:05;65.50;;;37.35;;
59790;SDS011;47431;51.640;5.554;2023-10-09T00:11:57;63.03;;;38.05;;
59790;SDS011;47431;51.640;5.554;2023-10-09T00:14:25;68.70;;;38.80;;
59790;SDS011;47431;51.640;5.554;2023-10-09T00:16:56;67.93;;;43.05;;
59790;SDS011;47431;51.640;5.554;2023-10-09T00:19:41;62.72;;;39.88;;
59790;SDS011;47431;51.640;5.554;2023-10-09T00:22:08;72.97;;;42.60;;
59790;SDS011;47431;51.640;5.554;2023-10-09T00:24:42;61.67;;;39.70;;
59790;SDS011;47431;51.640;5.554;2023-10-09T00:27:11;70.38;;;43.28;;
59790;SDS011;47431;51.640;5.554;2023-10-09T00:29:37;68.50;;;40.97;;
59790;SDS011;47431;51.640;5.554;2023-10-09T00:32:10;62.95;;;42.22;;
59790;SDS011;47431;51.640;5.554;2023-10-09T00:34:47;79.38;;;46.70;;
59790;SDS011;47431;51.640;5.554;2023-10-09T00:37:15;71.85;;;47.45;;
59790;SDS011;47431;51.640;5.554;2023-10-09T00:39:42;79.07;;;49.00;;
59790;SDS011;47431;51.640;5.554;2023-10-09T00:42:09;76.85;;;50.33;;
59790;SDS011;47431;51.640;5.554;2023-10-09T00:44:40;71.70;;;48.17;;
59790;SDS011;47431;51.640;5.554;2023-10-09T00:47:13;76.65;;;48.88;;
59790;SDS011;47431;51.640;5.554;2023-10-09T00:49:58;76.53;;;48.20;;
59790;SDS011;47431;51.640;5.554;2023-10-09T00:52:46;69.35;;;45.35;;
59790;SDS011;47431;51.640;5.554;2023-10-09T00:55:20;69.80;;;45.55;;
59790;SDS011;47431;51.640;5.554;2023-10-09T00:58:06;71.90;;;44.92;;
59790;SDS011;47431;51.640;5.554;2023-10-09T01:00:43;66.22;;;42.72;;
59790;SDS011;47431;51.640;5.554;2023-10-09T01:03:08;59.53;;;40.97;;
59790;SDS011;47431;51.640;5.554;2023-10-09T01:05:37;60.50;;;40.67;;
59790;SDS011;47431;51.640;5.554;2023-10-09T01:08:04;60.67;;;40.72;;
59790;SDS011;47431;51.640;5.554;2023-10-09T01:10:47;53.78;;;37.92;;
59790;SDS011;47431;51.640;5.554;2023-10-09T01:13:22;54.80;;;38.15;;
59790;SDS011;47431;51.640;5.554;2023-10-09T01:15:54;58.92;;;37.95;;
59790;SDS011;47431;51.640;5.554;2023-10-09T01:18:24;57.20;;;38.88;;
59790;SDS011;47431;51.640;5.554;2023-10-09T01:20:57;55.53;;;37.05;;
59790;SDS011;47431;51.640;5.554;2023-10-09T01:23:22;51.53;;;36.42;;
59790;SDS011;47431;51.640;5.554;2023-10-09T01:25:48;59.60;;;39.63;;
59790;SDS011;47431;51.640;5.554;2023-10-09T01:28:15;50.20;;;37.78;;
59790;SDS011;47431;51.640;5.554;2023-10-09T01:30:41;54.33;;;35.03;;
59790;SDS011;47431;51.640;5.554;2023-10-09T01:33:10;51.03;;;35.75;;
59790;SDS011;47431;51.640;5.554;2023-10-09T01:35:52;44.60;;;33.15;;
59790;SDS011;47431;51.640;5.554;2023-10-09T01:38:23;47.47;;;34.47;;
59790;SDS011;47431;51.640;5.554;2023-10-09T01:41:05;45.93;;;32.20;;
59790;SDS011;47431;51.640;5.554;2023-10-09T01:43:33;49.28;;;32.63;;
59790;SDS011;47431;51.640;5.554;2023-10-09T01:45:59;40.67;;;31.27;;
59790;SDS011;47431;51.640;5.554;2023-10-09T01:48:26;44.85;;;32.78;;
59790;SDS011;47431;51.640;5.554;2023-10-09T01:50:52;37.63;;;29.73;;
59790;SDS011;47431;51.640;5.554;2023-10-09T01:53:18;43.05;;;28.92;;
59790;SDS011;47431;51.640;5.554;2023-10-09T01:55:47;37.78;;;29.77;;
59790;SDS011;47431;51.640;5.554;2023-10-09T01:58:12;42.08;;;27.95;;
59790;SDS011;47431;51.640;5.554;2023-10-09T02:00:47;42.58;;;26.98;;
59790;SDS011;47431;51.640;5.554;2023-10-09T02:03:22;39.47;;;27.52;;
59790;SDS011;47431;51.640;5.554;2023-10-09T02:05:52;42.50;;;30.85;;
59790;SDS011;47431;51.640;5.554;2023-10-09T02:08:40;37.92;;;27.00;;
59790;SDS011;47431;51.640;5.554;2023-10-09T02:11:14;36.92;;;26.05;;
59790;SDS011;47431;51.640;5.554;2023-10-09T02:13:40;38.20;;;28.55;;
59790;SDS011;47431;51.640;5.554;2023-10-09T02:16:07;37.45;;;25.60;;
59790;SDS011;47431;51.640;5.554;2023-10-09T02:18:53;36.63;;;26.23;;
59790;SDS011;47431;51.640;5.554;2023-10-09T02:21:18;37.35;;;26.75;;
59790;SDS011;47431;51.640;5.554;2023-10-09T02:24:04;31.27;;;24.42;;
59790;SDS011;47431;51.640;5.554;2023-10-09T02:26:32;35.45;;;25.08;;
59790;SDS011;47431;51.640;5.554;2023-10-09T02:29:04;37.03;;;26.10;;
59790;SDS011;47431;51.640;5.554;2023-10-09T02:31:40;39.45;;;27.10;;
59790;SDS011;47431;51.640;5.554;2023-10-09T02:34:06;43.15;;;26.27;;
59790;SDS011;47431;51.640;5.554;2023-10-09T02:36:40;42.13;;;27.17;;
59790;SDS011;47431;51.640;5.554;2023-10-09T02:39:14;34.42;;;26.38;;
59790;SDS011;47431;51.640;5.554;2023-10-09T02:41:57;41.63;;;25.40;;
59790;SDS011;47431;51.640;5.554;2023-10-09T02:44:27;38.05;;;24.77;;
59790;SDS011;47431;51.640;5.554;2023-10-09T02:46:59;36.70;;;25.30;;
59790;SDS011;47431;51.640;5.554;2023-10-09T02:49:30;39.83;;;28.15;;
59790;SDS011;47431;51.640;5.554;2023-10-09T02:51:55;36.45;;;26.02;;
59790;SDS011;47431;51.640;5.554;2023-10-09T02:54:21;33.28;;;26.65;;
59790;SDS011;47431;51.640;5.554;2023-10-09T02:56:46;40.53;;;26.38;;
59790;SDS011;47431;51.640;5.554;2023-10-09T02:59:19;32.22;;;26.98;;
59790;SDS011;47431;51.640;5.554;2023-10-09T03:01:47;39.22;;;28.63;;
59790;SDS011;47431;51.640;5.554;2023-10-09T03:04:13;35.17;;;25.08;;
59790;SDS011;47431;51.640;5.554;2023-10-09T03:06:39;35.40;;;24.23;;
59790;SDS011;47431;51.640;5.554;2023-10-09T03:09:15;41.55;;;27.50;;
59790;SDS011;47431;51.640;5.554;2023-10-09T03:11:45;36.78;;;26.55;;
59790;SDS011;47431;51.640;5.554;2023-10-09T03:14:13;36.50;;;23.90;;
59790;SDS011;47431;51.640;5.554;2023-10-09T03:16:38;38.85;;;25.90;;
59790;SDS011;47431;51.640;5.554;2023-10-09T03:19:04;39.53;;;25.95;;
59790;SDS011;47431;51.640;5.554;2023-10-09T03:21:29;32.20;;;25.45;;
59790;SDS011;47431;51.640;5.554;2023-10-09T03:23:55;36.30;;;26.75;;
59790;SDS011;47431;51.640;5.554;2023-10-09T03:26:21;40.70;;;27.55;;
59790;SDS011;47431;51.640;5.554;2023-10-09T03:28:51;40.83;;;26.98;;
59790;SDS011;47431;51.640;5.554;2023-10-09T03:31:17;33.58;;;26.13;;
59790;SDS011;47431;51.640;5.554;2023-10-09T03:33:43;33.03;;;25.20;;
59790;SDS011;47431;51.640;5.554;2023-10-09T03:36:08;33.10;;;25.55;;
59790;SDS011;47431;51.640;5.554;2023-10-09T03:38:37;33.10;;;25.48;;
59790;SDS011;47431;51.640;5.554;2023-10-09T03:41:04;35.42;;;26.33;;
59790;SDS011;47431;51.640;5.554;2023-10-09T03:43:34;33.35;;;24.90;;
59790;SDS011;47431;51.640;5.554;2023-10-09T03:46:13;34.13;;;25.23;;
59790;SDS011;47431;51.640;5.554;2023-10-09T03:48:57;32.03;;;24.45;;
59790;SDS011;47431;51.640;5.554;2023-10-09T03:51:25;37.85;;;26.85;;
59790;SDS011;47431;51.640;5.554;2023-10-09T03:53:51;33.33;;;24.58;;
59790;SDS011;47431;51.640;5.554;2023-10-09T03:56:20;37.38;;;27.70;;
59790;SDS011;47431;51.640;5.554;2023-10-09T03:58:47;33.88;;;25.88;;
59790;SDS011;47431;51.640;5.554;2023-10-09T04:01:19;40.70;;;25.95;;
59790;SDS011;47431;51.640;5.554;2023-10-09T04:03:53;36.10;;;25.73;;
59790;SDS011;47431;51.640;5.554;2023-10-09T04:06:24;35.08;;;26.02;;
59790;SDS011;47431;51.640;5.554;2023-10-09T04:11:24;37.08;;;25.77;;
59790;SDS011;47431;51.640;5.554;2023-10-09T04:13:49;31.67;;;26.33;;
59790;SDS011;47431;51.640;5.554;2023-10-09T04:16:17;38.72;;;26.52;;
59790;SDS011;47431;51.640;5.554;2023-10-09T04:18:51;36.47;;;26.65;;
59790;SDS011;47431;51.640;5.554;2023-10-09T04:21:17;42.97;;;25.55;;
59790;SDS011;47431;51.640;5.554;2023-10-09T04:23:55;38.10;;;25.60;;
59790;SDS011;47431;51.640;5.554;2023-10-09T04:26:39;33.20;;;23.95;;
59790;SDS011;47431;51.640;5.554;2023-10-09T04:29:15;36.70;;;26.35;;
59790;SDS011;47431;51.640;5.554;2023-10-09T04:32:04;35.80;;;27.10;;
59790;SDS011;47431;51.640;5.554;2023-10-09T04:34:40;36.80;;;26.05;;
59790;SDS011;47431;51.640;5.554;2023-10-09T04:37:13;33.72;;;26.23;;
59790;SDS011;47431;51.640;5.554;2023-10-09T04:39:39;38.92;;;26.00;;
59790;SDS011;47431;51.640;5.554;2023-10-09T04:42:12;35.58;;;24.42;;
59790;SDS011;47431;51.640;5.554;2023-10-09T04:44:51;33.67;;;23.98;;
59790;SDS011;47431;51.640;5.554;2023-10-09T04:47:33;32.50;;;24.88;;
59790;SDS011;47431;51.640;5.554;2023-10-09T04:50:06;31.05;;;25.35;;
59790;SDS011;47431;51.640;5.554;2023-10-09T04:52:40;32.67;;;24.13;;
59790;SDS011;47431;51.640;5.554;2023-10-09T04:55:06;31.75;;;24.65;;
59790;SDS011;47431;51.640;5.554;2023-10-09T04:57:38;34.83;;;24.38;;
59790;SDS011;47431;51.640;5.554;2023-10-09T05:00:18;27.40;;;23.40;;
59790;SDS011;47431;51.640;5.554;2023-10-09T05:02:53;34.47;;;23.50;;
59790;SDS011;47431;51.640;5.554;2023-10-09T05:05:23;37.00;;;24.02;;
59790;SDS011;47431;51.640;5.554;2023-10-09T05:08:08;42.08;;;23.90;;
59790;SDS011;47431;51.640;5.554;2023-10-09T05:10:50;34.07;;;23.70;;
59790;SDS011;47431;51.640;5.554;2023-10-09T05:13:39;48.80;;;26.52;;
59790;SDS011;47431;51.640;5.554;2023-10-09T05:16:04;36.28;;;23.90;;
59790;SDS011;47431;51.640;5.554;2023-10-09T05:18:45;37.33;;;26.20;;
59790;SDS011;47431;51.640;5.554;2023-10-09T05:21:21;32.30;;;23.98;;
59790;SDS011;47431;51.640;5.554;2023-10-09T05:23:56;38.67;;;25.85;;
59790;SDS011;47431;51.640;5.554;2023-10-09T05:26:47;34.78;;;23.10;;
59790;SDS011;47431;51.640;5.554;2023-10-09T05:29:24;48.38;;;24.88;;
59790;SDS011;47431;51.640;5.554;2023-10-09T05:31:54;33.95;;;22.73;;
59790;SDS011;47431;51.640;5.554;2023-10-09T05:34:22;44.20;;;26.58;;
59790;SDS011;47431;51.640;5.554;2023-10-09T05:36:49;32.15;;;23.98;;
59790;SDS011;47431;51.640;5.554;2023-10-09T05:39:14;35.40;;;22.20;;
59790;SDS011;47431;51.640;5.554;2023-10-09T05:41:46;37.38;;;25.58;;
59790;SDS011;47431;51.640;5.554;2023-10-09T05:44:24;50.03;;;26.55;;
59790;SDS011;47431;51.640;5.554;2023-10-09T05:47:09;28.42;;;22.77;;
59790;SDS011;47431;51.640;5.554;2023-10-09T05:49:52;38.30;;;25.92;;
59790;SDS011;47431;51.640;5.554;2023-10-09T05:52:28;37.90;;;24.08;;
59790;SDS011;47431;51.640;5.554;2023-10-09T05:55:03;37.78;;;27.27;;
59790;SDS011;47431;51.640;5.554;2023-10-09T05:57:44;37.90;;;26.08;;
59790;SDS011;47431;51.640;5.554;2023-10-09T06:00:28;45.88;;;25.48;;
59790;SDS011;47431;51.640;5.554;2023-10-09T06:03:13;35.63;;;24.20;;
59790;SDS011;47431;51.640;5.554;2023-10-09T06:05:53;44.38;;;25.02;;
59790;SDS011;47431;51.640;5.554;2023-10-09T06:08:26;35.53;;;26.92;;
59790;SDS011;47431;51.640;5.554;2023-10-09T06:11:19;34.83;;;26.38;;
59790;SDS011;47431;51.640;5.554;2023-10-09T06:14:00;40.47;;;26.73;;
59790;SDS011;47431;51.640;5.554;2023-10-09T06:16:35;33.83;;;24.65;;
59790;SDS011;47431;51.640;5.554;2023-10-09T06:19:12;39.58;;;26.70;;
59790;SDS011;47431;51.640;5.554;2023-10-09T06:21:59;32.88;;;27.25;;
59790;SDS011;47431;51.640;5.554;2023-10-09T06:24:37;38.33;;;25.40;;
59790;SDS011;47431;51.640;5.554;2023-10-09T06:27:02;44.67;;;27.58;;
59790;SDS011;47431;51.640;5.554;2023-10-09T06:29:30;46.58;;;28.17;;
59790;SDS011;47431;51.640;5.554;2023-10-09T06:32:00;36.58;;;27.23;;
59790;SDS011;47431;51.640;5.554;2023-10-09T06:34:42;37.60;;;26.88;;
59790;SDS011;47431;51.640;5.554;2023-10-09T06:37:17;35.17;;;25.38;;
59790;SDS011;47431;51.640;5.554;2023-10-09T06:39:52;50.47;;;25.65;;
59790;SDS011;47431;51.640;5.554;2023-10-09T06:42:22;51.00;;;25.77;;
59790;SDS011;47431;51.640;5.554;2023-10-09T06:45:12;33.65;;;25.15;;
59790;SDS011;47431;51.640;5.554;2023-10-09T06:47:40;49.75;;;27.10;;
59790;SDS011;47431;51.640;5.554;2023-10-09T06:50:10;32.35;;;24.70;;
59790;SDS011;47431;51.640;5.554;2023-10-09T06:52:51;49.30;;;27.80;;
59790;SDS011;47431;51.640;5.554;2023-10-09T06:55:40;41.13;;;25.98;;
59790;SDS011;47431;51.640;5.554;2023-10-09T06:58:16;45.15;;;26.60;;
59790;SDS011;47431;51.640;5.554;2023-10-09T07:00:52;74.57;;;30.95;;
59790;SDS011;47431;51.640;5.554;2023-10-09T07:03:38;49.45;;;28.98;;
59790;SDS011;47431;51.640;5.554;2023-10-09T07:06:17;41.25;;;28.63;;
59790;SDS011;47431;51.640;5.554;2023-10-09T07:08:52;70.43;;;28.65;;
59790;SDS011;47431;51.640;5.554;2023-10-09T07:11:34;34.38;;;25.38;;
59790;SDS011;47431;51.640;5.554;2023-10-09T07:14:07;39.30;;;27.13;;
59790;SDS011;47431;51.640;5.554;2023-10-09T07:16:33;32.63;;;25.50;;
59790;SDS011;47431;51.640;5.554;2023-10-09T07:19:22;41.47;;;27.33;;
59790;SDS011;47431;51.640;5.554;2023-10-09T07:22:11;63.17;;;28.95;;
59790;SDS011;47431;51.640;5.554;2023-10-09T07:24:49;37.85;;;27.13;;
59790;SDS011;47431;51.640;5.554;2023-10-09T07:27:22;49.47;;;28.02;;
59790;SDS011;47431;51.640;5.554;2023-10-09T07:30:17;60.55;;;28.92;;
59790;SDS011;47431;51.640;5.554;2023-10-09T07:35:45;37.80;;;25.98;;
59790;SDS011;47431;51.640;5.554;2023-10-09T07:38:18;42.47;;;26.52;;
59790;SDS011;47431;51.640;5.554;2023-10-09T07:40:53;33.50;;;24.83;;
59790;SDS011;47431;51.640;5.554;2023-10-09T07:43:45;45.45;;;26.35;;
59790;SDS011;47431;51.640;5.554;2023-10-09T07:46:17;61.67;;;28.70;;
59790;SDS011;47431;51.640;5.554;2023-10-09T07:49:06;40.45;;;27.52;;
59790;SDS011;47431;51.640;5.554;2023-10-09T07:51:35;39.22;;;25.27;;
59790;SDS011;47431;51.640;5.554;2023-10-09T07:54:02;50.67;;;25.42;;
59790;SDS011;47431;51.640;5.554;2023-10-09T07:56:34;37.15;;;24.98;;
59790;SDS011;47431;51.640;5.554;2023-10-09T07:59:18;31.42;;;25.83;;
59790;SDS011;47431;51.640;5.554;2023-10-09T08:01:45;32.67;;;25.83;;
59790;SDS011;47431;51.640;5.554;2023-10-09T08:04:18;32.80;;;25.02;;
59790;SDS011;47431;51.640;5.554;2023-10-09T08:07:13;35.67;;;24.67;;
59790;SDS011;47431;51.640;5.554;2023-10-09T08:10:00;48.90;;;26.23;;
59790;SDS011;47431;51.640;5.554;2023-10-09T08:12:43;49.17;;;25.38;;
59790;SDS011;47431;51.640;5.554;2023-10-09T08:15:09;29.02;;;25.10;;
59790;SDS011;47431;51.640;5.554;2023-10-09T08:17:53;32.38;;;24.92;;
59790;SDS011;47431;51.640;5.554;2023-10-09T08:20:38;37.33;;;25.50;;
59790;SDS011;47431;51.640;5.554;2023-10-09T08:23:36;32.35;;;25.67;;
59790;SDS011;47431;51.640;5.554;2023-10-09T08:26:15;34.72;;;25.85;;
59790;SDS011;47431;51.640;5.554;2023-10-09T08:29:02;33.35;;;24.55;;
59790;SDS011;47431;51.640;5.554;2023-10-09T08:31:42;39.30;;;24.88;;
59790;SDS011;47431;51.640;5.554;2023-10-09T08:34:12;33.78;;;25.15;;
59790;SDS011;47431;51.640;5.554;2023-10-09T08:36:49;32.30;;;23.73;;
59790;SDS011;47431;51.640;5.554;2023-10-09T08:39:21;36.83;;;23.63;;
59790;SDS011;47431;51.640;5.554;2023-10-09T08:41:58;35.03;;;24.88;;
59790;SDS011;47431;51.640;5.554;2023-10-09T08:44:24;36.60;;;24.05;;
59790;SDS011;47431;51.640;5.554;2023-10-09T08:46:53;38.92;;;23.52;;
59790;SDS011;47431;51.640;5.554;2023-10-09T08:49:20;33.63;;;23.42;;
59790;SDS011;47431;51.640;5.554;2023-10-09T08:51:48;39.10;;;23.02;;
59790;SDS011;47431;51.640;5.554;2023-10-09T08:54:14;37.20;;;22.90;;
59790;SDS011;47431;51.640;5.554;2023-10-09T08:56:40;33.22;;;22.33;;
59790;SDS011;47431;51.640;5.554;2023-10-09T08:59:16;27.33;;;22.92;;
59790;SDS011;47431;51.640;5.554;2023-10-09T09:01:44;30.00;;;21.20;;
59790;SDS011;47431;51.640;5.554;2023-10-09T09:07:03;33.58;;;21.60;;
59790;SDS011;47431;51.640;5.554;2023-10-09T09:09:29;28.33;;;20.80;;
59790;SDS011;47431;51.640;5.554;2023-10-09T09:11:57;29.77;;;21.02;;
59790;SDS011;47431;51.640;5.554;2023-10-09T09:14:35;26.83;;;19.98;;
59790;SDS011;47431;51.640;5.554;2023-10-09T09:17:04;26.17;;;18.98;;
59790;SDS011;47431;51.640;5.554;2023-10-09T09:19:36;32.28;;;20.38;;
59790;SDS011;47431;51.640;5.554;2023-10-09T09:22:03;52.65;;;20.88;;
59790;SDS011;47431;51.640;5.554;2023-10-09T09:24:39;24.65;;;19.70;;
59790;SDS011;47431;51.640;5.554;2023-10-09T09:27:10;30.80;;;18.80;;
59790;SDS011;47431;51.640;5.554;2023-10-09T09:29:43;24.90;;;19.13;;
59790;SDS011;47431;51.640;5.554;2023-10-09T09:32:17;26.05;;;18.60;;
59790;SDS011;47431;51.640;5.554;2023-10-09T09:34:55;38.83;;;19.08;;
59790;SDS011;47431;51.640;5.554;2023-10-09T09:37:26;26.20;;;18.95;;
59790;SDS011;47431;51.640;5.554;2023-10-09T09:42:25;31.63;;;19.38;;
59790;SDS011;47431;51.640;5.554;2023-10-09T09:44:58;35.50;;;21.50;;
59790;SDS011;47431;51.640;5.554;2023-10-09T09:47:25;34.10;;;20.75;;
59790;SDS011;47431;51.640;5.554;2023-10-09T09:49:55;30.95;;;22.23;;
59790;SDS011;47431;51.640;5.554;2023-10-09T09:52:36;27.02;;;20.58;;
59790;SDS011;47431;51.640;5.554;2023-10-09T09:55:06;23.13;;;19.42;;
59790;SDS011;47431;51.640;5.554;2023-10-09T09:57:41;24.25;;;20.25;;
59790;SDS011;47431;51.640;5.554;2023-10-09T10:00:10;37.97;;;21.75;;
59790;SDS011;47431;51.640;5.554;2023-10-09T10:02:54;23.90;;;19.63;;
59790;SDS011;47431;51.640;5.554;2023-10-09T10:05:33;28.85;;;19.52;;
59790;SDS011;47431;51.640;5.554;2023-10-09T10:07:59;26.10;;;19.45;;
59790;SDS011;47431;51.640;5.554;2023-10-09T10:18:22;31.33;;;19.08;;
59790;SDS011;47431;51.640;5.554;2023-10-09T10:23:39;26.25;;;19.85;;
59790;SDS011;47431;51.640;5.554;2023-10-09T10:31:59;41.60;;;19.90;;
59790;SDS011;47431;51.640;5.554;2023-10-09T10:37:34;24.13;;;17.48;;
59790;SDS011;47431;51.640;5.554;2023-10-09T10:40:03;39.58;;;19.15;;
59790;SDS011;47431;51.640;5.554;2023-10-09T10:42:59;27.10;;;16.80;;
59790;SDS011;47431;51.640;5.554;2023-10-09T10:45:37;24.77;;;17.38;;
59790;SDS011;47431;51.640;5.554;2023-10-09T10:48:08;27.70;;;16.85;;
59790;SDS011;47431;51.640;5.554;2023-10-09T10:50:48;23.13;;;16.13;;
59790;SDS011;47431;51.640;5.554;2023-10-09T10:53:22;21.85;;;15.65;;
59790;SDS011;47431;51.640;5.554;2023-10-09T10:55:58;23.65;;;16.27;;
59790;SDS011;47431;51.640;5.554;2023-10-09T10:58:54;22.00;;;15.88;;
59790;SDS011;47431;51.640;5.554;2023-10-09T11:01:20;18.98;;;13.50;;
59790;SDS011;47431;51.640;5.554;2023-10-09T11:03:49;26.55;;;14.68;;
59790;SDS011;47431;51.640;5.554;2023-10-09T11:06:39;21.08;;;15.45;;
59790;SDS011;47431;51.640;5.554;2023-10-09T11:09:07;19.15;;;13.57;;
59790;SDS011;47431;51.640;5.554;2023-10-09T11:11:46;23.83;;;14.50;;
59790;SDS011;47431;51.640;5.554;2023-10-09T11:14:15;18.65;;;13.10;;
59790;SDS011;47431;51.640;5.554;2023-10-09T11:16:42;19.30;;;12.95;;
59790;SDS011;47431;51.640;5.554;2023-10-09T11:19:12;15.82;;;12.18;;
59790;SDS011;47431;51.640;5.554;2023-10-09T11:21:56;19.33;;;12.38;;
59790;SDS011;47431;51.640;5.554;2023-10-09T11:24:27;21.27;;;12.63;;
59790;SDS011;47431;51.640;5.554;2023-10-09T11:26:58;19.13;;;13.18;;
59790;SDS011;47431;51.640;5.554;2023-10-09T11:29:30;17.60;;;12.93;;
59790;SDS011;47431;51.640;5.554;2023-10-09T11:32:03;17.35;;;12.05;;
59790;SDS011;47431;51.640;5.554;2023-10-09T11:34:33;21.25;;;12.98;;
59790;SDS011;47431;51.640;5.554;2023-10-09T11:37:12;19.20;;;13.07;;
59790;SDS011;47431;51.640;5.554;2023-10-09T11:39:41;18.27;;;12.75;;
59790;SDS011;47431;51.640;5.554;2023-10-09T11:42:18;24.05;;;13.80;;
59790;SDS011;47431;51.640;5.554;2023-10-09T11:45:03;21.33;;;13.25;;
59790;SDS011;47431;51.640;5.554;2023-10-09T11:47:47;19.33;;;12.40;;
59790;SDS011;47431;51.640;5.554;2023-10-09T11:53:42;19.90;;;11.38;;
59790;SDS011;47431;51.640;5.554;2023-10-09T11:56:10;19.48;;;10.82;;
59790;SDS011;47431;51.640;5.554;2023-10-09T11:58:39;20.83;;;10.52;;
59790;SDS011;47431;51.640;5.554;2023-10-09T12:01:10;17.25;;;10.38;;
59790;SDS011;47431;51.640;5.554;2023-10-09T12:03:42;22.10;;;11.20;;
59790;SDS011;47431;51.640;5.554;2023-10-09T12:06:08;20.42;;;11.10;;
59790;SDS011;47431;51.640;5.554;2023-10-09T12:08:37;13.50;;;9.60;;
59790;SDS011;47431;51.640;5.554;2023-10-09T12:11:05;14.32;;;10.68;;
59790;SDS011;47431;51.640;5.554;2023-10-09T12:13:34;18.73;;;11.00;;
59790;SDS011;47431;51.640;5.554;2023-10-09T12:16:03;13.23;;;9.98;;
59790;SDS011;47431;51.640;5.554;2023-10-09T12:18:33;16.23;;;9.82;;
59790;SDS011;47431;51.640;5.554;2023-10-09T12:20:59;17.08;;;10.93;;
59790;SDS011;47431;51.640;5.554;2023-10-09T12:23:29;14.98;;;9.45;;
59790;SDS011;47431;51.640;5.554;2023-10-09T12:26:00;19.92;;;11.00;;
59790;SDS011;47431;51.640;5.554;2023-10-09T12:28:29;18.00;;;11.27;;
59790;SDS011;47431;51.640;5.554;2023-10-09T12:30:58;18.60;;;10.85;;
59790;SDS011;47431;51.640;5.554;2023-10-09T12:33:26;20.83;;;11.32;;
59790;SDS011;47431;51.640;5.554;2023-10-09T12:35:53;15.32;;;9.98;;
59790;SDS011;47431;51.640;5.554;2023-10-09T12:38:25;14.93;;;9.90;;
59790;SDS011;47431;51.640;5.554;2023-10-09T12:43:50;15.00;;;9.30;;
59790;SDS011;47431;51.640;5.554;2023-10-09T12:46:17;18.30;;;10.23;;
59790;SDS011;47431;51.640;5.554;2023-10-09T12:48:43;21.08;;;10.52;;
59790;SDS011;47431;51.640;5.554;2023-10-09T12:51:14;31.70;;;11.95;;
59790;SDS011;47431;51.640;5.554;2023-10-09T12:56:09;19.98;;;9.90;;
59790;SDS011;47431;51.640;5.554;2023-10-09T12:58:37;21.48;;;10.57;;
59790;SDS011;47431;51.640;5.554;2023-10-09T13:01:02;18.70;;;10.13;;
59790;SDS011;47431;51.640;5.554;2023-10-09T13:03:34;20.45;;;12.05;;
59790;SDS011;47431;51.640;5.554;2023-10-09T13:06:03;33.65;;;11.82;;
59790;SDS011;47431;51.640;5.554;2023-10-09T13:08:32;31.67;;;10.27;;
59790;SDS011;47431;51.640;5.554;2023-10-09T13:11:05;24.48;;;9.85;;
59790;SDS011;47431;51.640;5.554;2023-10-09T13:13:41;16.35;;;10.35;;
59790;SDS011;47431;51.640;5.554;2023-10-09T13:16:12;22.05;;;11.25;;
59790;SDS011;47431;51.640;5.554;2023-10-09T13:18:48;16.17;;;9.95;;
59790;SDS011;47431;51.640;5.554;2023-10-09T13:21:20;21.60;;;9.38;;
59790;SDS011;47431;51.640;5.554;2023-10-09T13:23:47;15.95;;;9.25;;
59790;SDS011;47431;51.640;5.554;2023-10-09T13:26:19;18.83;;;9.00;;
59790;SDS011;47431;51.640;5.554;2023-10-09T13:28:53;16.45;;;9.55;;
59790;SDS011;47431;51.640;5.554;2023-10-09T13:31:20;14.10;;;8.45;;
59790;SDS011;47431;51.640;5.554;2023-10-09T13:33:51;12.18;;;8.10;;
59790;SDS011;47431;51.640;5.554;2023-10-09T13:36:19;19.48;;;8.80;;
59790;SDS011;47431;51.640;5.554;2023-10-09T13:38:51;13.45;;;8.15;;
59790;SDS011;47431;51.640;5.554;2023-10-09T13:41:20;15.50;;;9.45;;
59790;SDS011;47431;51.640;5.554;2023-10-09T13:43:46;19.23;;;9.73;;
59790;SDS011;47431;51.640;5.554;2023-10-09T13:46:11;19.95;;;8.50;;
59790;SDS011;47431;51.640;5.554;2023-10-09T13:48:41;13.50;;;7.75;;
59790;SDS011;47431;51.640;5.554;2023-10-09T13:51:08;14.90;;;8.45;;
59790;SDS011;47431;51.640;5.554;2023-10-09T13:53:39;16.30;;;8.40;;
59790;SDS011;47431;51.640;5.554;2023-10-09T13:56:13;16.90;;;9.18;;
59790;SDS011;47431;51.640;5.554;2023-10-09T13:58:46;14.73;;;8.65;;
59790;SDS011;47431;51.640;5.554;2023-10-09T14:01:20;11.18;;;6.80;;
59790;SDS011;47431;51.640;5.554;2023-10-09T14:03:57;24.40;;;8.00;;
59790;SDS011;47431;51.640;5.554;2023-10-09T14:06:24;10.32;;;6.82;;
59790;SDS011;47431;51.640;5.554;2023-10-09T14:08:58;19.95;;;7.88;;
59790;SDS011;47431;51.640;5.554;2023-10-09T14:11:24;14.38;;;7.28;;
59790;SDS011;47431;51.640;5.554;2023-10-09T14:13:51;19.10;;;8.75;;
59790;SDS011;47431;51.640;5.554;2023-10-09T14:16:17;14.85;;;7.53;;
59790;SDS011;47431;51.640;5.554;2023-10-09T14:18:52;13.90;;;7.72;;
59790;SDS011;47431;51.640;5.554;2023-10-09T14:21:26;18.30;;;8.18;;
59790;SDS011;47431;51.640;5.554;2023-10-09T14:23:55;16.55;;;7.95;;
59790;SDS011;47431;51.640;5.554;2023-10-09T14:26:24;15.85;;;6.90;;
59790;SDS011;47431;51.640;5.554;2023-10-09T14:28:51;13.85;;;8.50;;
59790;SDS011;47431;51.640;5.554;2023-10-09T14:31:22;18.40;;;8.45;;
59790;SDS011;47431;51.640;5.554;2023-10-09T14:33:58;18.35;;;8.18;;
59790;SDS011;47431;51.640;5.554;2023-10-09T14:36:23;19.65;;;8.85;;
59790;SDS011;47431;51.640;5.554;2023-10-09T14:38:50;16.25;;;8.20;;
59790;SDS011;47431;51.640;5.554;2023-10-09T14:41:21;13.23;;;7.32;;
59790;SDS011;47431;51.640;5.554;2023-10-09T14:43:50;17.08;;;8.15;;
59790;SDS011;47431;51.640;5.554;2023-10-09T14:46:17;16.15;;;7.70;;
59790;SDS011;47431;51.640;5.554;2023-10-09T14:48:50;14.88;;;7.90;;
59790;SDS011;47431;51.640;5.554;2023-10-09T14:51:22;17.15;;;7.97;;
59790;SDS011;47431;51.640;5.554;2023-10-09T14:53:57;14.15;;;8.77;;
59790;SDS011;47431;51.640;5.554;2023-10-09T14:56:27;18.00;;;7.25;;
59790;SDS011;47431;51.640;5.554;2023-10-09T14:58:58;18.15;;;7.93;;
59790;SDS011;47431;51.640;5.554;2023-10-09T15:01:27;12.85;;;7.50;;
59790;SDS011;47431;51.640;5.554;2023-10-09T15:03:57;13.90;;;6.80;;
59790;SDS011;47431;51.640;5.554;2023-10-09T15:06:28;17.33;;;8.13;;
59790;SDS011;47431;51.640;5.554;2023-10-09T15:08:58;16.33;;;8.35;;
59790;SDS011;47431;51.640;5.554;2023-10-09T15:11:33;16.75;;;7.82;;
59790;SDS011;47431;51.640;5.554;2023-10-09T15:13:58;10.98;;;7.57;;
59790;SDS011;47431;51.640;5.554;2023-10-09T15:16:24;16.38;;;8.38;;
59790;SDS011;47431;51.640;5.554;2023-10-09T15:18:55;13.50;;;6.85;;
59790;SDS011;47431;51.640;5.554;2023-10-09T15:21:22;13.20;;;7.20;;
59790;SDS011;47431;51.640;5.554;2023-10-09T15:23:57;13.45;;;7.28;;
59790;SDS011;47431;51.640;5.554;2023-10-09T15:26:23;20.67;;;8.38;;
59790;SDS011;47431;51.640;5.554;2023-10-09T15:28:50;13.70;;;7.75;;
59790;SDS011;47431;51.640;5.554;2023-10-09T15:31:17;16.88;;;7.65;;
59790;SDS011;47431;51.640;5.554;2023-10-09T15:33:43;14.30;;;7.97;;
59790;SDS011;47431;51.640;5.554;2023-10-09T15:36:10;15.60;;;7.63;;